Gumspring, Virginia
Current Conditions -  °F | °C
As of 11:15 PM on Tuesday 27 Jan 2015 (Local Time) from K7W4 Reporting Station
Overcast Overcast  
Wind Chill: 27°   Ceiling: 7000
Heat Index: 31°   Visibility: 10mi
Dew Point: 20°   Wind: 5mph
Humidity: 64%   Direction: 360°N
Pressure: 29.96"   Gusts: NA
Location:  37.809°N, 77.9185°W
Report Text: K7W4 280415Z AUTO 36004KT 10SM OVC070 00/M06 A2996 RMK AO1 T10041064
Loading
Personal Weather Stations






























Interactive Weather Map New forecast layout! Learn more

10-Day Weather Forecast

Advertisements
Track Severe Weather on mobile